Kezdőlap
METAR-TAF:

METAR-TAF

Repülőterek :

Nakashibetsu, Japán

földrajzi szélesség: 43-34N, földrajzi hosszúság: 144-58E, magasság: 66 m

Jelenlegi meteorológiai megfigyelések

A jelentés 5 órával és 44 perccel ezelõtt készült, 09:00 UTC
Észak-északkeleti szél 8 kt
Hőmérséklet 8°C
Páratartalom 93%
Légköri nyomás 999 hPa
Látótávolság: 2000 m
Kevés felhő 200 lábon
Szórványos felhőzet 300 lábon
Szakadozott felhőzet 400 lábon
enyhe záporok, Párásság,

METAR: RJCN 250900Z 03008KT 2000 -SHRA BR FEW002 SCT003 BKN004 08/07 Q0999

Idő: 23:44 (14:44 UTC)


TAF: hiányzik

Meteorológiai megfigyelések és előrejelzések több, mint 4000 repülőtéren (METAR és TAF jelentéseket).

A térképen piros és sárga pontok jelzik az elérhető meteorológiai állomásokat.

Mozgassa az egeret a pont fölött, hogy megjelenjen az állomás neve.

Azután kattintson az időjárási megfigyelések és előrejelzések megtekintéséhez.

A térkép megváltoztatása: kattintson a fekete keresztel jelölt zöld gombra ráközelítéshez, a vonallal jelölt zöld gombra távolításhoz, vagy a zöld nyilakra a szomszédos térképek eléréséhez.


METAR-TAF: